Time;durP1;ratioP1;P1;durP2;ratioP2;P2;SDS_P1;SDS_P2;PMS_P1;PMS_P2;Temp;Humidity;BMP_temperature;BMP_pressure;BME280_temperature;BME280_humidity;BME280_pressure;Samples;Min_cycle;Max_cycle;Signal;HPM_P1;HPM_P2
2023/05/04 00:00:42;;;;;;;9.55;5.78;;;14.90;99.90;;;;;;5036459;28;20100;-70
2023/05/04 00:03:07;;;;;;;7.80;5.05;;;14.90;99.90;;;;;;5035244;28;20030;-69
2023/05/04 00:05:33;;;;;;;7.63;5.28;;;14.90;99.90;;;;;;5036988;28;20029;-70
2023/05/04 00:07:59;;;;;;;6.90;5.15;;;14.90;99.90;;;;;;5036792;28;20025;-70
2023/05/04 00:10:26;;;;;;;9.02;4.53;;;14.80;99.90;;;;;;5036359;28;20037;-69
2023/05/04 00:12:52;;;;;;;6.07;5.13;;;14.90;99.90;;;;;;5038208;28;20022;-70
2023/05/04 00:15:18;;;;;;;5.93;5.00;;;14.90;99.90;;;;;;5035570;28;20402;-70
2023/05/04 00:17:44;;;;;;;10.32;5.78;;;14.90;99.90;;;;;;5041587;28;20072;-70
2023/05/04 00:20:10;;;;;;;12.23;5.75;;;14.80;99.90;;;;;;5037341;28;20466;-69
2023/05/04 00:22:36;;;;;;;8.32;5.35;;;14.80;99.90;;;;;;5038933;28;20026;-70
2023/05/04 00:25:02;;;;;;;7.47;5.13;;;14.90;99.90;;;;;;5027465;28;20124;-70
2023/05/04 00:27:27;;;;;;;10.05;5.03;;;14.80;99.90;;;;;;5032186;28;20033;-70
2023/05/04 00:29:53;;;;;;;7.70;5.40;;;14.80;99.90;;;;;;5037804;28;20057;-70
2023/05/04 00:32:19;;;;;;;9.52;6.68;;;14.80;99.90;;;;;;5032948;28;20506;-70
2023/05/04 00:34:45;;;;;;;8.35;5.57;;;14.80;99.90;;;;;;5035849;28;20036;-70
2023/05/04 00:37:10;;;;;;;10.50;6.03;;;14.80;99.90;;;;;;5036442;28;20026;-70
2023/05/04 00:39:36;;;;;;;8.10;5.15;;;14.80;99.90;;;;;;5033204;28;20018;-71
2023/05/04 00:42:02;;;;;;;6.45;5.85;;;14.80;99.90;;;;;;5032638;28;20105;-70
2023/05/04 00:44:28;;;;;;;9.40;5.72;;;14.80;99.90;;;;;;5036963;28;20112;-70
2023/05/04 00:46:54;;;;;;;8.13;5.40;;;14.80;99.90;;;;;;5036028;28;20024;-71
2023/05/04 00:49:20;;;;;;;15.50;6.07;;;14.80;99.90;;;;;;5033997;28;20561;-71
2023/05/04 00:51:47;;;;;;;7.90;6.25;;;14.80;99.90;;;;;;5027058;28;20548;-69
2023/05/04 00:54:16;;;;;;;6.63;5.60;;;14.80;99.90;;;;;;5036561;28;20049;-70
2023/05/04 00:56:42;;;;;;;8.82;5.50;;;14.70;99.90;;;;;;5037768;28;20021;-70
2023/05/04 00:59:08;;;;;;;10.00;5.78;;;14.70;99.90;;;;;;5036394;28;20092;-70
2023/05/04 01:01:34;;;;;;;7.68;5.53;;;14.70;99.90;;;;;;5035689;28;20037;-70
2023/05/04 01:04:00;;;;;;;11.38;6.20;;;14.70;99.90;;;;;;5037913;28;20025;-70
2023/05/04 01:06:44;;;;;;;12.50;6.25;;;14.80;99.90;;;;;;5036878;28;20030;-69
2023/05/04 01:09:16;;;;;;;8.88;5.45;;;14.70;99.90;;;;;;5036159;28;20025;-69
2023/05/04 01:12:11;;;;;;;8.93;5.40;;;14.70;99.90;;;;;;5037249;28;20486;-70
2023/05/04 01:14:38;;;;;;;7.57;5.28;;;14.70;99.90;;;;;;5029431;28;20037;-71
2023/05/04 01:17:06;;;;;;;9.52;6.45;;;14.70;99.90;;;;;;5036973;28;20103;-69
2023/05/04 01:19:32;;;;;;;8.88;5.90;;;14.70;99.90;;;;;;5030697;28;20060;-70
2023/05/04 01:21:58;;;;;;;8.20;6.20;;;14.70;99.90;;;;;;5029634;28;20028;-70
2023/05/04 01:24:25;;;;;;;8.27;5.40;;;14.80;99.90;;;;;;5037771;28;20057;-70
2023/05/04 01:27:25;;;;;;;11.30;5.55;;;14.70;99.90;;;;;;5035748;28;20032;-70
2023/05/04 01:30:08;;;;;;;9.20;6.60;;;14.70;99.90;;;;;;5036370;28;20044;-69
2023/05/04 01:32:36;;;;;;;7.72;5.45;;;14.80;99.90;;;;;;5039164;28;20034;-70
2023/05/04 01:35:01;;;;;;;8.65;5.95;;;14.70;99.90;;;;;;5035219;28;20068;-69
2023/05/04 01:37:27;;;;;;;11.43;5.97;;;14.70;99.90;;;;;;5025506;28;21444;-70
2023/05/04 01:39:53;;;;;;;9.55;6.50;;;14.80;99.90;;;;;;5023555;28;20030;-69
2023/05/04 01:42:18;;;;;;;13.70;6.72;;;14.80;99.90;;;;;;5032893;28;20025;-69
2023/05/04 01:44:44;;;;;;;9.68;6.28;;;14.80;99.90;;;;;;5036375;28;20029;-69
2023/05/04 01:47:10;;;;;;;11.93;6.03;;;14.80;99.90;;;;;;5028600;28;20033;-69
2023/05/04 01:49:36;;;;;;;8.60;5.50;;;14.70;99.90;;;;;;5029817;28;20025;-70
2023/05/04 01:52:02;;;;;;;12.95;6.43;;;14.80;99.90;;;;;;5029464;28;20021;-70
2023/05/04 01:54:27;;;;;;;12.77;7.05;;;14.80;99.90;;;;;;5028534;28;20037;-69
2023/05/04 01:56:53;;;;;;;17.20;7.25;;;14.70;99.90;;;;;;5019036;28;20030;-69
2023/05/04 01:59:18;;;;;;;8.35;5.78;;;14.70;99.90;;;;;;5022526;28;20030;-70
2023/05/04 02:01:44;;;;;;;14.85;7.57;;;14.80;99.90;;;;;;5034837;28;20100;-69
2023/05/04 02:04:10;;;;;;;12.95;6.30;;;14.80;99.90;;;;;;5034525;28;20100;-69
2023/05/04 02:06:35;;;;;;;16.15;6.30;;;14.70;99.90;;;;;;5035788;28;20029;-69
2023/05/04 02:09:02;;;;;;;10.18;6.93;;;14.70;99.90;;;;;;5021055;28;20030;-69
2023/05/04 02:11:28;;;;;;;9.27;7.07;;;14.80;99.90;;;;;;5020556;28;20506;-69
2023/05/04 02:13:53;;;;;;;8.65;6.65;;;14.80;99.90;;;;;;5031515;28;20096;-69
2023/05/04 02:16:19;;;;;;;13.55;6.65;;;14.80;99.90;;;;;;5026520;28;20034;-70
2023/05/04 02:18:45;;;;;;;9.23;6.05;;;14.80;99.90;;;;;;5029142;28;20040;-70
2023/05/04 02:21:12;;;;;;;10.88;6.75;;;14.80;99.90;;;;;;5020962;28;20099;-70
2023/05/04 02:23:38;;;;;;;12.55;7.07;;;14.80;99.90;;;;;;5017541;28;20030;-69
2023/05/04 02:26:03;;;;;;;12.27;7.25;;;14.80;99.90;;;;;;5034767;28;20029;-69
2023/05/04 02:28:29;;;;;;;13.10;7.25;;;14.80;99.90;;;;;;5034499;28;20041;-69
2023/05/04 02:30:55;;;;;;;15.57;7.40;;;14.90;99.90;;;;;;5025931;28;20112;-70
2023/05/04 02:33:20;;;;;;;15.80;7.68;;;14.90;99.90;;;;;;5029051;28;20045;-69
2023/05/04 02:35:46;;;;;;;11.38;6.78;;;14.90;99.90;;;;;;5018957;28;20030;-69
2023/05/04 02:38:12;;;;;;;14.35;7.15;;;14.90;99.90;;;;;;5027816;28;20021;-70
2023/05/04 02:40:37;;;;;;;11.40;6.70;;;14.90;99.90;;;;;;5033243;28;20156;-69
2023/05/04 02:43:03;;;;;;;10.88;6.45;;;15.00;99.90;;;;;;5020158;28;20026;-69
2023/05/04 02:45:29;;;;;;;12.18;7.03;;;15.00;99.90;;;;;;5025267;28;20025;-70
2023/05/04 02:47:54;;;;;;;10.52;6.82;;;15.00;99.90;;;;;;5032233;28;20096;-70
2023/05/04 02:50:20;;;;;;;10.18;6.03;;;15.00;99.90;;;;;;5029223;28;20105;-71
2023/05/04 02:52:46;;;;;;;12.18;7.53;;;15.10;99.90;;;;;;5032598;28;20107;-69
2023/05/04 02:55:11;;;;;;;17.08;6.68;;;15.10;99.90;;;;;;5033378;28;20064;-69
2023/05/04 02:57:37;;;;;;;12.57;8.13;;;15.10;99.90;;;;;;5025815;28;20033;-69
2023/05/04 03:00:05;;;;;;;11.27;6.18;;;15.10;99.90;;;;;;5043015;28;20021;-69
2023/05/04 03:02:31;;;;;;;10.32;6.75;;;15.10;99.90;;;;;;5033981;28;20519;-69
2023/05/04 03:04:57;;;;;;;11.32;6.95;;;15.10;99.90;;;;;;5030257;28;20084;-70
2023/05/04 03:07:22;;;;;;;11.10;6.75;;;15.20;99.90;;;;;;5034337;28;20073;-70
2023/05/04 03:09:48;;;;;;;11.93;7.68;;;15.20;99.90;;;;;;5034092;28;20116;-70
2023/05/04 03:12:14;;;;;;;9.25;6.60;;;15.20;99.90;;;;;;5033704;28;20105;-69
2023/05/04 03:14:40;;;;;;;10.57;6.57;;;15.10;99.90;;;;;;5021654;28;20033;-70
2023/05/04 03:17:05;;;;;;;10.88;6.80;;;15.20;99.90;;;;;;5028732;28;20042;-69
2023/05/04 03:19:31;;;;;;;13.45;7.05;;;15.10;99.90;;;;;;5023277;28;20029;-69
2023/05/04 03:21:56;;;;;;;10.70;7.03;;;15.10;99.90;;;;;;5027839;28;20028;-69
2023/05/04 03:24:22;;;;;;;17.23;8.45;;;15.10;99.90;;;;;;5030685;28;20029;-69
2023/05/04 03:26:48;;;;;;;11.00;6.70;;;15.10;99.90;;;;;;5029980;28;20054;-69
2023/05/04 03:29:13;;;;;;;11.77;6.22;;;15.10;99.90;;;;;;5044708;28;20029;-69
2023/05/04 03:31:39;;;;;;;14.85;6.78;;;15.10;99.90;;;;;;5035123;28;20033;-69
2023/05/04 03:34:05;;;;;;;10.07;6.13;;;15.10;99.90;;;;;;5028282;28;20113;-70
2023/05/04 03:36:30;;;;;;;17.95;6.22;;;15.20;99.90;;;;;;5035264;28;20093;-69
2023/05/04 03:38:56;;;;;;;8.82;5.88;;;15.20;99.90;;;;;;5031967;28;20375;-69
2023/05/04 03:41:22;;;;;;;10.30;6.47;;;15.20;99.90;;;;;;5027572;28;20026;-69
2023/05/04 03:43:47;;;;;;;15.35;7.00;;;15.30;99.90;;;;;;5027690;28;20022;-70
2023/05/04 03:46:13;;;;;;;14.40;6.55;;;15.30;99.90;;;;;;5029948;28;20029;-69
2023/05/04 03:48:39;;;;;;;19.02;7.00;;;15.30;99.90;;;;;;5033427;28;20029;-68
2023/05/04 03:51:05;;;;;;;13.35;5.80;;;15.30;99.90;;;;;;5022957;28;20097;-70
2023/05/04 03:53:33;;;;;;;9.38;5.50;;;15.30;99.90;;;;;;5028030;28;20030;-68
2023/05/04 03:55:59;;;;;;;14.13;6.82;;;15.30;99.90;;;;;;5032146;28;20057;-70
2023/05/04 03:58:25;;;;;;;11.73;6.97;;;15.30;99.90;;;;;;5033603;28;20026;-70
2023/05/04 04:00:50;;;;;;;18.80;6.70;;;15.30;99.90;;;;;;5030059;28;20026;-70
2023/05/04 04:03:17;;;;;;;15.13;5.93;;;15.30;99.90;;;;;;5028287;28;20057;-70
2023/05/04 04:05:42;;;;;;;10.13;5.85;;;15.30;99.90;;;;;;5031207;28;20030;-71
2023/05/04 04:08:08;;;;;;;11.32;6.95;;;15.30;99.90;;;;;;5033148;28;20490;-71
2023/05/04 04:10:34;;;;;;;15.45;7.15;;;15.30;99.90;;;;;;5037047;28;20513;-70
2023/05/04 04:13:00;;;;;;;14.02;7.63;;;15.20;99.90;;;;;;5033333;28;20075;-71
2023/05/04 04:15:25;;;;;;;14.10;7.40;;;15.20;99.90;;;;;;5030109;28;20025;-70
2023/05/04 04:17:51;;;;;;;9.85;6.97;;;15.20;99.90;;;;;;5035237;28;20046;-71
2023/05/04 04:20:17;;;;;;;21.33;7.38;;;15.30;99.90;;;;;;5028581;28;20034;-70
2023/05/04 04:22:43;;;;;;;10.25;6.80;;;15.30;99.90;;;;;;5021399;28;20113;-70
2023/05/04 04:25:09;;;;;;;15.40;8.00;;;15.30;99.90;;;;;;5021527;28;20088;-71
2023/05/04 04:27:35;;;;;;;9.88;6.22;;;15.30;99.90;;;;;;5031735;28;20040;-70
2023/05/04 04:30:02;;;;;;;12.07;7.05;;;15.30;99.90;;;;;;5036767;28;20021;-70
2023/05/04 04:32:28;;;;;;;12.85;7.22;;;15.30;99.90;;;;;;5028274;28;20022;-70
2023/05/04 04:34:54;;;;;;;14.32;7.82;;;15.30;99.90;;;;;;5026449;28;20498;-70
2023/05/04 04:37:20;;;;;;;17.48;6.60;;;15.30;99.90;;;;;;5021941;28;20110;-70
2023/05/04 04:39:46;;;;;;;11.55;7.07;;;15.30;99.90;;;;;;5036495;28;20034;-70
2023/05/04 04:42:12;;;;;;;14.27;7.50;;;15.30;99.90;;;;;;5030416;28;20025;-68
2023/05/04 04:44:38;;;;;;;15.68;7.50;;;15.30;99.90;;;;;;5032639;28;20029;-70
2023/05/04 04:47:05;;;;;;;12.05;5.97;;;15.30;99.90;;;;;;5024948;28;20033;-70
2023/05/04 04:49:31;;;;;;;18.60;7.78;;;15.30;99.90;;;;;;5032333;28;20040;-71
2023/05/04 04:51:56;;;;;;;17.52;7.35;;;15.40;99.90;;;;;;5033284;28;20029;-71
2023/05/04 04:54:22;;;;;;;12.15;6.75;;;15.40;99.90;;;;;;5021680;28;20112;-71
2023/05/04 04:56:48;;;;;;;12.93;6.40;;;15.40;99.90;;;;;;5023877;28;20026;-70
2023/05/04 04:59:13;;;;;;;15.80;8.25;;;15.40;99.90;;;;;;5034031;28;20029;-70
2023/05/04 05:01:41;;;;;;;12.02;7.15;;;15.40;99.90;;;;;;5031756;28;20064;-70
2023/05/04 05:04:06;;;;;;;9.27;7.10;;;15.40;99.90;;;;;;5033001;28;20025;-70
2023/05/04 05:06:32;;;;;;;12.15;7.18;;;15.40;99.90;;;;;;5019627;28;20438;-68
2023/05/04 05:08:58;;;;;;;10.60;6.38;;;15.40;99.90;;;;;;5028586;28;20052;-70
2023/05/04 05:11:24;;;;;;;12.95;7.28;;;15.40;99.90;;;;;;5032206;28;20060;-70
2023/05/04 05:13:49;;;;;;;12.82;7.00;;;15.40;99.90;;;;;;5034900;28;20087;-70
2023/05/04 05:16:15;;;;;;;13.85;6.78;;;15.40;99.90;;;;;;5030359;28;20025;-70
2023/05/04 05:18:41;;;;;;;10.68;7.07;;;15.40;99.90;;;;;;5027815;28;20041;-68
2023/05/04 05:21:08;;;;;;;9.45;6.05;;;15.40;99.90;;;;;;5026758;28;20162;-70
2023/05/04 05:23:34;;;;;;;14.80;7.05;;;15.40;99.90;;;;;;5020426;28;20033;-70
2023/05/04 05:26:00;;;;;;;20.50;7.15;;;15.40;99.90;;;;;;5030749;28;20029;-70
2023/05/04 05:28:26;;;;;;;14.10;6.85;;;15.40;99.90;;;;;;5033641;28;20087;-68
2023/05/04 05:30:51;;;;;;;19.10;7.80;;;15.40;99.90;;;;;;5028235;28;20026;-70
2023/05/04 05:33:17;;;;;;;14.77;7.90;;;15.40;99.90;;;;;;5028841;28;20052;-70
2023/05/04 05:35:43;;;;;;;10.95;7.05;;;15.40;99.90;;;;;;5032078;28;20039;-70
2023/05/04 05:38:09;;;;;;;11.63;6.97;;;15.50;99.90;;;;;;5037160;28;20048;-70
2023/05/04 05:40:35;;;;;;;11.55;6.97;;;15.50;99.90;;;;;;5037469;28;20021;-70
2023/05/04 05:43:03;;;;;;;9.88;7.38;;;15.50;99.90;;;;;;5029179;28;20032;-70
2023/05/04 05:45:28;;;;;;;16.13;6.90;;;15.50;99.90;;;;;;5030440;28;20031;-70
2023/05/04 05:47:54;;;;;;;17.27;7.80;;;15.50;99.90;;;;;;5024730;28;20026;-70
2023/05/04 05:50:22;;;;;;;13.63;6.63;;;15.60;99.90;;;;;;5024439;28;20033;-70
2023/05/04 05:52:48;;;;;;;15.55;7.78;;;15.60;99.90;;;;;;5019067;28;20553;-70
2023/05/04 05:55:14;;;;;;;11.02;6.88;;;15.60;99.90;;;;;;5031397;28;20052;-70
2023/05/04 05:57:39;;;;;;;12.80;6.75;;;15.70;99.90;;;;;;5034874;28;20034;-70
2023/05/04 06:00:06;;;;;;;10.32;7.20;;;15.70;99.90;;;;;;5031549;28;20085;-70
2023/05/04 06:02:31;;;;;;;14.77;7.10;;;15.70;99.90;;;;;;5027250;28;20026;-70
2023/05/04 06:04:57;;;;;;;16.70;7.10;;;15.80;99.90;;;;;;5022722;28;20568;-70
2023/05/04 06:07:23;;;;;;;15.02;7.00;;;15.80;99.90;;;;;;5032441;28;20037;-70
2023/05/04 06:09:49;;;;;;;15.63;6.70;;;15.80;99.90;;;;;;5034313;28;20740;-70
2023/05/04 06:12:16;;;;;;;12.57;6.68;;;15.80;99.90;;;;;;5033341;28;20077;-70
2023/05/04 06:14:42;;;;;;;13.50;6.07;;;15.90;99.90;;;;;;5034939;28;20120;-70
2023/05/04 06:17:08;;;;;;;19.48;6.82;;;16.00;99.90;;;;;;5025732;28;20484;-70
2023/05/04 06:19:36;;;;;;;11.30;5.95;;;16.00;99.90;;;;;;5031586;28;20085;-70
2023/05/04 06:22:01;;;;;;;14.15;6.15;;;16.10;99.90;;;;;;5018254;28;20028;-70
2023/05/04 06:24:28;;;;;;;19.80;6.60;;;16.20;99.90;;;;;;5022216;28;20093;-70
2023/05/04 06:26:55;;;;;;;12.60;6.68;;;16.20;99.90;;;;;;5025288;28;20085;-70
2023/05/04 06:29:20;;;;;;;13.07;6.40;;;16.30;99.90;;;;;;5024098;28;20026;-70
2023/05/04 06:31:46;;;;;;;19.10;6.78;;;16.40;99.90;;;;;;5027333;28;20033;-70
2023/05/04 06:34:12;;;;;;;20.63;6.45;;;16.50;99.90;;;;;;5034448;28;20033;-71
2023/05/04 06:36:38;;;;;;;18.77;6.30;;;16.50;99.90;;;;;;5022236;28;20029;-70
2023/05/04 06:39:04;;;;;;;14.90;6.20;;;16.50;99.90;;;;;;5031714;28;20021;-70
2023/05/04 06:41:30;;;;;;;14.48;6.03;;;16.50;99.90;;;;;;5032452;28;20569;-70
2023/05/04 06:43:56;;;;;;;11.68;6.45;;;16.60;99.90;;;;;;5033637;28;20124;-70
2023/05/04 06:46:22;;;;;;;13.90;5.53;;;16.60;99.90;;;;;;5032161;28;20074;-70
2023/05/04 06:48:47;;;;;;;20.02;7.43;;;16.60;99.90;;;;;;5031182;28;20124;-67
2023/05/04 06:51:13;;;;;;;21.42;6.32;;;16.70;99.90;;;;;;5031942;28;20037;-70
2023/05/04 06:53:39;;;;;;;14.63;6.82;;;16.70;99.90;;;;;;5030371;28;20030;-70
2023/05/04 06:56:06;;;;;;;16.63;6.28;;;16.70;99.90;;;;;;5034197;28;20072;-70
2023/05/04 06:58:32;;;;;;;20.77;5.80;;;16.90;99.90;;;;;;5030970;28;20053;-70
2023/05/04 07:00:57;;;;;;;17.58;5.72;;;17.00;99.90;;;;;;5021065;28;20034;-70
2023/05/04 07:03:23;;;;;;;17.20;6.18;;;17.00;99.90;;;;;;5014070;28;20033;-70
2023/05/04 07:05:49;;;;;;;16.55;6.68;;;17.10;99.90;;;;;;5025103;28;20032;-70
2023/05/04 07:08:16;;;;;;;10.23;5.53;;;17.20;99.90;;;;;;5024596;28;20052;-70
2023/05/04 07:10:42;;;;;;;26.85;7.32;;;17.30;99.90;;;;;;4998856;28;20040;-70
2023/05/04 07:13:08;;;;;;;24.20;5.55;;;17.40;99.90;;;;;;5010542;28;20493;-71
2023/05/04 07:15:34;;;;;;;22.55;6.07;;;17.40;99.90;;;;;;5032451;28;20030;-70
2023/05/04 07:18:00;;;;;;;14.10;6.10;;;17.50;99.90;;;;;;5031027;28;20067;-70
2023/05/04 07:20:26;;;;;;;13.82;5.10;;;17.60;99.90;;;;;;5033019;28;20087;-70
2023/05/04 07:22:55;;;;;;;21.20;4.95;;;17.60;99.90;;;;;;5026293;28;20021;-70
2023/05/04 07:25:25;;;;;;;15.43;5.85;;;17.90;99.90;;;;;;5028192;28;20033;-70
2023/05/04 07:27:52;;;;;;;11.43;5.10;;;18.00;99.90;;;;;;5031485;28;20029;-70
2023/05/04 07:30:18;;;;;;;13.45;4.53;;;18.20;99.90;;;;;;5030338;28;20030;-70
2023/05/04 07:32:44;;;;;;;21.27;4.72;;;18.40;99.90;;;;;;5023101;28;20030;-68
2023/05/04 07:35:10;;;;;;;18.20;4.97;;;18.70;99.90;;;;;;5037232;28;20375;-71
2023/05/04 07:37:35;;;;;;;19.33;4.63;;;19.00;99.90;;;;;;5032340;28;20037;-70
2023/05/04 07:40:04;;;;;;;18.58;5.50;;;19.20;99.90;;;;;;5027860;28;20022;-70
2023/05/04 07:42:30;;;;;;;18.02;5.28;;;19.10;99.90;;;;;;5014833;28;20426;-70
2023/05/04 07:44:56;;;;;;;19.05;5.30;;;19.00;99.90;;;;;;5019031;28;20572;-69
2023/05/04 07:47:22;;;;;;;20.63;5.05;;;18.90;99.90;;;;;;5018391;28;20116;-70
2023/05/04 07:49:47;;;;;;;28.75;5.47;;;18.80;99.90;;;;;;5017345;28;20029;-70
2023/05/04 07:52:13;;;;;;;19.63;5.30;;;18.60;99.90;;;;;;5037371;28;20057;-71
2023/05/04 07:54:39;;;;;;;24.38;5.82;;;18.50;99.90;;;;;;5034876;28;20060;-70
2023/05/04 07:57:04;;;;;;;18.83;5.88;;;18.40;99.90;;;;;;5034702;28;20025;-70
2023/05/04 07:59:31;;;;;;;14.65;4.65;;;18.30;99.90;;;;;;5025658;28;20552;-70
2023/05/04 08:01:56;;;;;;;17.58;5.90;;;18.40;99.90;;;;;;5030688;28;20421;-70
2023/05/04 08:04:22;;;;;;;15.57;5.43;;;18.40;99.90;;;;;;5035812;28;20029;-71
2023/05/04 08:06:48;;;;;;;14.82;5.05;;;18.50;99.90;;;;;;5026921;28;20025;-71
2023/05/04 08:09:17;;;;;;;13.10;4.40;;;18.50;99.90;;;;;;5026377;28;20049;-70
2023/05/04 08:11:44;;;;;;;19.48;4.97;;;18.60;99.90;;;;;;5026884;28;20021;-71
2023/05/04 08:14:10;;;;;;;13.10;4.25;;;18.50;99.90;;;;;;5033411;28;20076;-71
2023/05/04 08:16:38;;;;;;;14.68;4.95;;;18.70;99.90;;;;;;5031343;28;20661;-71
2023/05/04 08:19:04;;;;;;;16.77;5.03;;;18.70;99.90;;;;;;5035056;28;20021;-70
2023/05/04 08:21:30;;;;;;;16.63;5.60;;;18.80;99.90;;;;;;5030616;28;20104;-71
2023/05/04 08:23:55;;;;;;;17.90;5.25;;;19.00;99.90;;;;;;5031534;28;20398;-70
2023/05/04 08:26:22;;;;;;;17.50;4.78;;;19.20;99.90;;;;;;5037209;28;20034;-71
2023/05/04 08:28:48;;;;;;;13.88;5.15;;;19.60;99.90;;;;;;5022657;28;20490;-70
2023/05/04 08:31:14;;;;;;;20.60;5.78;;;19.90;99.90;;;;;;5033028;28;20053;-71
2023/05/04 08:33:40;;;;;;;21.05;6.88;;;20.10;99.90;;;;;;5038271;28;20049;-71
2023/05/04 08:36:08;;;;;;;21.02;4.30;;;19.90;99.90;;;;;;5034428;28;20026;-71
2023/05/04 08:38:33;;;;;;;18.42;6.38;;;19.90;99.90;;;;;;5037630;28;20037;-70
2023/05/04 08:41:06;;;;;;;16.00;4.78;;;19.80;99.90;;;;;;5036817;28;20451;-71
2023/05/04 08:43:35;;;;;;;11.38;4.55;;;19.70;99.90;;;;;;5038901;28;20581;-71
2023/05/04 08:46:02;;;;;;;17.10;5.43;;;19.80;99.90;;;;;;5034827;28;20034;-72
2023/05/04 08:48:28;;;;;;;17.75;5.32;;;19.70;99.90;;;;;;5036308;28;20028;-71
2023/05/04 08:50:56;;;;;;;13.55;4.93;;;19.40;99.90;;;;;;5033367;28;20393;-70
2023/05/04 08:53:23;;;;;;;13.38;4.47;;;19.40;99.90;;;;;;5029916;28;20021;-70
2023/05/04 08:55:51;;;;;;;17.95;5.68;;;19.50;99.90;;;;;;5036560;28;20028;-70
2023/05/04 08:58:21;;;;;;;19.73;4.72;;;19.60;99.90;;;;;;5036909;28;20026;-71
2023/05/04 09:00:47;;;;;;;14.82;4.57;;;19.60;99.90;;;;;;5034204;28;20117;-71
2023/05/04 09:03:13;;;;;;;21.05;5.18;;;19.80;99.90;;;;;;5035266;28;20484;-71
2023/05/04 09:05:41;;;;;;;11.40;5.00;;;20.00;99.90;;;;;;5034915;28;20436;-71
2023/05/04 09:08:07;;;;;;;15.52;4.82;;;20.20;99.90;;;;;;5028495;28;20109;-70
2023/05/04 09:10:33;;;;;;;12.57;4.50;;;20.20;99.90;;;;;;5034390;28;20065;-71
2023/05/04 09:12:59;;;;;;;11.27;3.95;;;20.10;99.90;;;;;;5036524;28;20385;-71
2023/05/04 09:15:25;;;;;;;14.50;5.35;;;19.90;99.90;;;;;;5035703;28;20172;-71
2023/05/04 09:17:58;;;;;;;17.10;5.32;;;20.10;99.90;;;;;;5036225;28;20042;-71
2023/05/04 09:20:27;;;;;;;15.20;5.03;;;20.30;99.90;;;;;;5034378;28;20028;-71
2023/05/04 09:23:05;;;;;;;17.10;5.40;;;20.40;99.90;;;;;;5028182;28;20016;-71
2023/05/04 09:25:50;;;;;;;12.02;4.65;;;20.50;99.90;;;;;;5036490;28;20067;-71
2023/05/04 09:28:17;;;;;;;14.20;4.75;;;20.40;99.90;;;;;;5034607;28;20026;-71
2023/05/04 09:30:43;;;;;;;12.68;4.57;;;20.60;99.90;;;;;;5034252;28;20036;-68
2023/05/04 09:33:12;;;;;;;13.40;4.43;;;20.60;99.90;;;;;;5036296;28;20037;-68
2023/05/04 09:35:39;;;;;;;15.35;4.78;;;20.60;99.90;;;;;;5036151;28;20113;-70
2023/05/04 09:38:06;;;;;;;10.45;3.95;;;20.60;99.90;;;;;;5036151;28;20056;-71
2023/05/04 09:40:39;;;;;;;14.32;4.95;;;20.70;99.90;;;;;;5032110;28;20068;-71
2023/05/04 09:43:06;;;;;;;19.63;6.10;;;20.70;99.90;;;;;;5032826;28;20025;-72
2023/05/04 09:45:43;;;;;;;16.27;5.28;;;20.90;99.90;;;;;;5024642;28;20026;-71
2023/05/04 09:48:17;;;;;;;11.00;4.45;;;20.80;99.90;;;;;;5018587;28;20022;-73
2023/05/04 09:50:54;;;;;;;13.38;4.45;;;20.70;99.90;;;;;;5021668;28;20461;-71
2023/05/04 09:53:30;;;;;;;10.40;4.53;;;20.60;99.90;;;;;;5032383;28;20025;-72
2023/05/04 09:56:00;;;;;;;10.10;4.70;;;20.60;99.90;;;;;;5035435;28;20013;-72
2023/05/04 09:58:28;;;;;;;15.10;4.95;;;20.60;99.90;;;;;;5033569;28;20037;-70
2023/05/04 10:00:53;;;;;;;12.05;4.57;;;20.70;99.90;;;;;;5034158;28;20386;-71
2023/05/04 10:03:20;;;;;;;12.63;4.78;;;20.70;99.90;;;;;;5033756;28;20029;-71
2023/05/04 10:05:48;;;;;;;15.38;6.72;;;20.90;99.90;;;;;;5045108;28;20847;-68
2023/05/04 10:08:15;;;;;;;15.00;4.05;;;21.00;99.90;;;;;;5035270;28;20029;-71
2023/05/04 10:10:42;;;;;;;11.48;4.78;;;21.00;99.90;;;;;;5033853;28;20133;-71
2023/05/04 10:13:08;;;;;;;13.18;4.47;;;21.10;99.90;;;;;;5028880;28;20083;-71
2023/05/04 10:15:36;;;;;;;18.17;5.05;;;21.00;99.90;;;;;;5027946;28;20025;-71
2023/05/04 10:18:35;;;;;;;14.20;4.38;;;21.00;99.90;;;;;;5029355;28;20116;-71
2023/05/04 10:21:25;;;;;;;14.85;4.35;;;21.10;99.90;;;;;;5031756;28;20032;-73
2023/05/04 10:23:53;;;;;;;13.75;5.50;;;21.10;99.90;;;;;;5031763;28;20025;-69
2023/05/04 10:26:46;;;;;;;14.30;5.80;;;21.30;99.90;;;;;;5031417;28;20034;-70
2023/05/04 10:29:16;;;;;;;12.23;4.65;;;21.40;99.90;;;;;;5032610;28;20468;-69
2023/05/04 10:31:42;;;;;;;20.70;6.15;;;21.60;99.90;;;;;;5034216;28;20037;-69
2023/05/04 10:34:09;;;;;;;10.20;4.30;;;21.40;99.90;;;;;;5033610;28;20032;-70
2023/05/04 10:36:39;;;;;;;16.30;5.15;;;21.30;99.90;;;;;;5034145;28;20026;-70
2023/05/04 10:39:26;;;;;;;13.82;5.57;;;21.10;99.90;;;;;;5033264;28;20040;-71
2023/05/04 10:42:05;;;;;;;14.82;4.88;;;21.10;99.90;;;;;;5031584;28;20140;-70
2023/05/04 10:44:36;;;;;;;12.48;4.35;;;21.30;99.90;;;;;;5033367;28;20026;-70
2023/05/04 10:47:05;;;;;;;;;;;21.50;99.90;;;;;;5033538;28;20029;-70
2023/05/04 10:49:32;;;;;;;12.98;4.70;;;21.40;99.90;;;;;;5024544;28;19909;-70
2023/05/04 10:52:11;;;;;;;9.25;3.92;;;21.40;99.90;;;;;;5032774;28;20049;-70
2023/05/04 10:54:38;;;;;;;12.18;4.18;;;21.40;99.90;;;;;;5027947;28;20025;-70
2023/05/04 10:57:12;;;;;;;14.73;4.82;;;21.50;99.90;;;;;;5031411;28;20748;-69
2023/05/04 10:59:38;;;;;;;14.98;5.35;;;21.60;99.90;;;;;;5026880;28;20048;-69
2023/05/04 11:02:06;;;;;;;13.32;3.95;;;21.70;99.90;;;;;;5029039;28;20022;-69
2023/05/04 11:04:32;;;;;;;14.40;5.13;;;21.80;99.90;;;;;;5036038;28;20355;-70
2023/05/04 11:06:59;;;;;;;9.73;4.25;;;21.80;99.90;;;;;;5034888;28;20108;-68
2023/05/04 11:09:26;;;;;;;16.25;4.55;;;22.00;99.90;;;;;;5026437;28;20485;-69
2023/05/04 11:11:53;;;;;;;10.65;4.78;;;21.90;99.90;;;;;;5030157;28;20497;-69
2023/05/04 11:14:27;;;;;;;15.35;4.97;;;22.10;99.90;;;;;;5035268;28;20037;-69
2023/05/04 11:17:08;;;;;;;15.80;5.72;;;22.20;99.90;;;;;;5038724;28;20045;-69
2023/05/04 11:19:34;;;;;;;8.65;3.90;;;21.60;99.90;;;;;;5033280;28;20021;-69
2023/05/04 11:22:03;;;;;;;18.23;5.18;;;21.50;99.90;;;;;;5033864;28;20101;-69
2023/05/04 11:24:43;;;;;;;13.27;4.10;;;21.50;99.90;;;;;;5035941;28;20025;-69
2023/05/04 11:27:21;;;;;;;17.95;5.22;;;21.60;99.90;;;;;;5036912;28;20030;-68
2023/05/04 11:30:00;;;;;;;16.25;5.22;;;21.70;99.90;;;;;;5034230;28;20069;-70
2023/05/04 11:32:48;;;;;;;9.03;4.40;;;21.70;99.90;;;;;;5034111;28;20046;-69
2023/05/04 11:35:19;;;;;;;15.25;4.47;;;21.60;99.90;;;;;;5014719;28;20029;-69
2023/05/04 11:37:45;;;;;;;15.45;4.85;;;21.80;99.90;;;;;;5021081;28;20131;-69
2023/05/04 11:40:18;;;;;;;16.38;5.10;;;21.90;99.90;;;;;;5021165;28;20075;-69
2023/05/04 11:42:44;;;;;;;13.13;5.13;;;21.90;99.90;;;;;;5032795;28;20029;-69
2023/05/04 11:45:14;;;;;;;12.93;4.93;;;21.90;99.90;;;;;;5031968;28;20029;-69
2023/05/04 11:47:40;;;;;;;12.95;4.70;;;22.00;99.90;;;;;;5037314;28;20044;-68
2023/05/04 11:50:08;;;;;;;13.77;4.75;;;22.10;99.90;;;;;;5036833;28;20501;-68
2023/05/04 11:52:35;;;;;;;12.10;4.50;;;22.20;99.90;;;;;;5035318;28;20501;-69
2023/05/04 11:55:02;;;;;;;10.27;3.58;;;22.30;99.90;;;;;;5035023;28;20025;-67
2023/05/04 11:57:30;;;;;;;8.93;4.80;;;22.30;99.90;;;;;;5035473;28;20025;-68
2023/05/04 11:59:55;;;;;;;12.48;4.22;;;22.50;99.90;;;;;;5032133;28;20033;-68
2023/05/04 12:02:21;;;;;;;11.20;4.28;;;22.70;99.90;;;;;;5037271;28;20402;-68
2023/05/04 12:04:47;;;;;;;11.13;4.22;;;22.70;99.90;;;;;;5036265;28;20157;-68
2023/05/04 12:07:13;;;;;;;11.45;4.63;;;22.70;99.90;;;;;;5035282;28;20033;-68
2023/05/04 12:09:48;;;;;;;13.77;4.55;;;22.90;99.90;;;;;;5030951;28;20598;-68
2023/05/04 12:12:17;;;;;;;13.75;4.47;;;22.90;99.90;;;;;;5028184;28;20063;-68
2023/05/04 12:15:01;;;;;;;11.38;4.75;;;23.00;99.90;;;;;;5032798;28;20021;-68
2023/05/04 12:17:27;;;;;;;12.32;3.63;;;23.20;99.90;;;;;;5030360;28;20041;-68
2023/05/04 12:19:54;;;;;;;12.13;3.80;;;23.10;99.90;;;;;;5026896;28;20516;-68
2023/05/04 12:22:31;;;;;;;12.95;4.30;;;23.00;99.90;;;;;;5031744;28;20030;-69
2023/05/04 12:25:00;;;;;;;9.35;4.45;;;23.10;99.90;;;;;;5031094;28;20037;-68
2023/05/04 12:27:26;;;;;;;7.95;4.28;;;23.10;99.90;;;;;;5034467;28;20041;-69
2023/05/04 12:29:52;;;;;;;7.72;3.70;;;23.10;99.90;;;;;;5032389;28;20026;-68
2023/05/04 12:32:19;;;;;;;12.55;3.92;;;23.30;99.90;;;;;;5034781;28;20457;-69
2023/05/04 12:34:44;;;;;;;7.88;4.10;;;23.50;99.90;;;;;;5035152;28;20092;-68
2023/05/04 12:37:10;;;;;;;9.70;4.40;;;23.60;99.90;;;;;;5034889;28;20029;-68
2023/05/04 12:39:36;;;;;;;9.80;4.22;;;23.70;99.90;;;;;;5034551;28;20056;-69